Allendale, Indiana
Current Conditions -  °F | °C
As of 4:53 PM on Friday 31 Oct 2014 (Local Time) from KHUF Reporting Station
Light Snow Light Snow  
Wind Chill: 28°   Ceiling: 4600
Heat Index: 38°   Visibility: 9mi
Dew Point: 31°   Wind: 20mph
Humidity: 76%   Direction: 310°NW
Pressure: 30.11"   Gusts: 30mph
Location:  39.3587°N, 87.4056°W
Report Text: KHUF 312053Z 31017G26KT 9SM -SN FEW024 SCT032 OVC046 03/M01 A3011 RMK AO2 PK WND 33036/2032 RAB1956E37SNE1956B37 SLP200 P0000 60000 T00331006 53006
Loading
Personal Weather Stations






























Interactive Weather Map
Tropical Storm Tracking
New forecast layout! Learn more

10-Day Weather Forecast

Advertisements
Track Severe Weather on mobile